Osijek Airport

LDOS · Vukovar-Sirmium, Chorwacja

Historia METAR LDOS · Osijek Airport

Poniżej widzisz METAR-y z ostatnich kilku dni. Wybierz rok, aby przeglądać starsze METAR-y, począwszy od roku 2007.

16 czerwca 2024

Czas Kod Pogoda Temp. Widoczność Sufit Wiatr METAR/SPECI
04:30
V
15 °C 10 km+ - Var Var 2 kt METAR LDOS 160230Z VRB02KT CAVOK 15/15 Q1010
04:00
V
16 °C 10 km+ - 110° 110° 4 kt METAR LDOS 160200Z 11004KT CAVOK 16/15 Q1010
03:30
V
16 °C 10 km+ - Var Var 1 kt METAR LDOS 160130Z VRB01KT CAVOK 16/15 Q1011
03:00
V
17 °C 10 km+ - 280° 280° 3 kt METAR LDOS 160100Z 28003KT CAVOK 17/15 Q1011
02:30
V
16 °C 10 km+ - 280° 280° 8 kt METAR LDOS 160030Z 28008KT CAVOK 16/15 Q1011
02:00
V
17 °C 10 km+ - 140° 140° 4 kt METAR LDOS 160000Z 14004KT CAVOK 17/16 Q1011
01:30
V
17 °C 10 km+ - 090° 090° 3 kt METAR LDOS 152330Z 09003KT CAVOK 17/15 Q1011
01:00
V
17 °C 10 km+ - 100° 100° 3 kt METAR LDOS 152300Z 10003KT CAVOK 17/16 Q1011
00:30
V
17 °C 10 km+ - 090° 090° 3 kt METAR LDOS 152230Z 09003KT CAVOK 17/16 Q1010
00:00
V
17 °C 10 km+ - 100° 100° 5 kt METAR LDOS 152200Z 10005KT CAVOK 17/15 Q1010

15 czerwca 2024

Czas Kod Pogoda Temp. Widoczność Sufit Wiatr METAR/SPECI
23:30
V
17 °C 10 km+ - 090° 090° 4 kt METAR LDOS 152130Z 09004KT CAVOK 17/16 Q1011
23:00
V
18 °C 10 km+ - 130° 130° 4 kt METAR LDOS 152100Z 13004KT CAVOK 18/16 Q1010
22:30
V
18 °C 10 km+ - 100° 100° 5 kt METAR LDOS 152030Z 10005KT CAVOK 18/17 Q1010
22:00
V
19 °C 10 km+ - 090° 090° 4 kt METAR LDOS 152000Z 09004KT CAVOK 19/17 Q1010
21:30
V
20 °C 10 km+ - 060° 060° 6 kt METAR LDOS 151930Z 06006KT CAVOK 20/17 Q1010
21:00
V
22 °C 10 km+ - 020° 020° 3 kt METAR LDOS 151900Z 02003KT CAVOK 22/17 Q1010
20:30
V
25 °C 10 km+ - 360° 360° 0 kt METAR LDOS 151830Z 00000KT CAVOK 25/18 Q1010
20:00
V
25 °C 10 km+ - Var Var 2 kt METAR LDOS 151800Z VRB02KT CAVOK 25/17 Q1010
19:30
V
26 °C 10 km+ - 210° 210° 2 kt METAR LDOS 151730Z 21002KT CAVOK 26/17 Q1010
19:00
V
26 °C 10 km+ - 210° 210° 4 kt METAR LDOS 151700Z 21004KT 180V240 CAVOK 26/16 Q1010
18:30
V
27 °C 10 km+ - Var Var 1 kt METAR LDOS 151630Z VRB01KT CAVOK 27/14 Q1010
18:00
V
27 °C 10 km+ - Var Var 2 kt METAR LDOS 151600Z VRB02KT CAVOK 27/13 Q1010
17:30
V
27 °C 10 km+ - 240° 240° 5 kt METAR LDOS 151530Z 24005KT 210V290 CAVOK 27/14 Q1010
17:00
V
27 °C 10 km+ - 200° 200° 5 kt METAR LDOS 151500Z 20005KT 150V260 CAVOK 27/13 Q1011
16:30
V
27 °C 10 km+ - 220° 220° 5 kt METAR LDOS 151430Z 22005KT 180V270 CAVOK 27/13 Q1011
16:00
V
27 °C 10 km+ - 230° 230° 7 kt METAR LDOS 151400Z 23007KT 200V260 CAVOK 27/13 Q1011
15:30
V
27 °C 10 km+ - Var Var 5 kt METAR LDOS 151330Z VRB05KT CAVOK 27/13 Q1011
15:00
V
27 °C 10 km+ - Var Var 4 kt METAR LDOS 151300Z VRB04KT CAVOK 27/14 Q1011
14:30
V
26 °C 10 km+ - 240° 240° 5 kt METAR LDOS 151230Z 24005KT 200V340 CAVOK 26/11 Q1012
14:00
V
27 °C 10 km+ - Var Var 3 kt METAR LDOS 151200Z VRB03KT CAVOK 27/13 Q1012
13:30
V
26 °C 10 km+ - 190° 190° 5 kt METAR LDOS 151130Z 19005KT 130V230 CAVOK 26/14 Q1012
13:00
V
26 °C 10 km+ - Var Var 4 kt METAR LDOS 151100Z VRB04KT CAVOK 26/13 Q1012
12:30
V
25 °C 10 km+ - 200° 200° 4 kt METAR LDOS 151030Z 20004KT 140V260 CAVOK 25/13 Q1013
12:00
V
25 °C 10 km+ - 210° 210° 6 kt METAR LDOS 151000Z 21006KT CAVOK 25/13 Q1013
11:30
V
24 °C 10 km+ - 200° 200° 7 kt METAR LDOS 150930Z 20007KT 160V230 CAVOK 24/12 Q1013
11:00
V
24 °C 10 km+ - 160° 160° 7 kt METAR LDOS 150900Z 16007KT 100V220 CAVOK 24/12 Q1013
10:30
V
24 °C 10 km+ - 160° 160° 7 kt METAR LDOS 150830Z 16007KT 130V200 CAVOK 24/13 Q1013
10:00
V
23 °C 10 km+ - 150° 150° 7 kt METAR LDOS 150800Z 15007KT CAVOK 23/13 Q1014
09:30
V
22 °C 10 km+ - 160° 160° 6 kt METAR LDOS 150730Z 16006KT 120V190 CAVOK 22/13 Q1014
09:00
V
21 °C 10 km+ - 150° 150° 6 kt METAR LDOS 150700Z 15006KT 120V190 CAVOK 21/14 Q1014
08:30
V
20 °C 10 km+ - 160° 160° 3 kt METAR LDOS 150630Z 16003KT 120V190 CAVOK 20/14 Q1014
08:00
V
18 °C 10 km+ - 140° 140° 3 kt METAR LDOS 150600Z 14003KT 100V160 CAVOK 18/14 Q1014
07:30
V
16 °C 10 km+ - 160° 160° 3 kt METAR LDOS 150530Z 16003KT CAVOK 16/14 Q1014
07:00
V
15 °C 10 km+ - 150° 150° 3 kt METAR LDOS 150500Z 15003KT CAVOK 15/13 Q1014
06:30
V
14 °C 10 km+ - 120° 120° 2 kt METAR LDOS 150430Z 12002KT CAVOK 14/12 Q1014
06:00
V
13 °C 10 km+ - 120° 120° 3 kt METAR LDOS 150400Z 12003KT CAVOK 13/11 Q1014
05:30
V
12 °C 10 km+ - 130° 130° 3 kt METAR LDOS 150330Z 13003KT CAVOK 12/11 Q1014
05:00
V
11 °C 10 km+ - 150° 150° 3 kt METAR LDOS 150300Z 15003KT CAVOK 11/11 Q1014
04:30
V
12 °C 10 km+ - 150° 150° 3 kt METAR LDOS 150230Z 15003KT CAVOK 12/11 Q1014
04:00
V
12 °C 10 km+ - 140° 140° 3 kt METAR LDOS 150200Z 14003KT CAVOK 12/11 Q1014
03:30
V
12 °C 10 km+ - 120° 120° 2 kt METAR LDOS 150130Z 12002KT CAVOK 12/12 Q1014
03:00
V
12 °C 10 km+ - 120° 120° 2 kt METAR LDOS 150100Z 12002KT CAVOK 12/12 Q1015
02:30
V
13 °C 10 km+ - 110° 110° 2 kt METAR LDOS 150030Z 11002KT CAVOK 13/11 Q1014
02:00
V
13 °C 10 km+ - 150° 150° 3 kt METAR LDOS 150000Z 15003KT CAVOK 13/12 Q1015
01:30
V
13 °C 10 km+ - 150° 150° 3 kt METAR LDOS 142330Z 15003KT CAVOK 13/13 Q1015
01:00
V
14 °C 10 km+ - 160° 160° 3 kt METAR LDOS 142300Z 16003KT CAVOK 14/13 Q1015
00:30
V
14 °C 10 km+ - 140° 140° 2 kt METAR LDOS 142230Z 14002KT CAVOK 14/13 Q1015
00:00
V
15 °C 10 km+ - 140° 140° 2 kt METAR LDOS 142200Z 14002KT CAVOK 15/14 Q1015

14 czerwca 2024

Czas Kod Pogoda Temp. Widoczność Sufit Wiatr METAR/SPECI
23:30
V
16 °C 10 km+ - 150° 150° 3 kt METAR LDOS 142130Z 15003KT CAVOK 16/14 Q1015
23:00
V
17 °C 10 km+ - 180° 180° 2 kt METAR LDOS 142100Z 18002KT CAVOK 17/14 Q1015
22:30
V
17 °C 10 km+ - 190° 190° 3 kt METAR LDOS 142030Z 19003KT CAVOK 17/15 Q1016
22:00
V
17 °C 10 km+ - 150° 150° 1 kt METAR LDOS 142000Z 15001KT CAVOK 17/14 Q1015
21:30
V
18 °C 10 km+ - 210° 210° 2 kt METAR LDOS 141930Z 21002KT CAVOK 18/14 Q1016
21:00
V
19 °C 10 km+ - 110° 110° 3 kt METAR LDOS 141900Z 11003KT CAVOK 19/15 Q1015
20:30
V
20 °C 10 km+ - 100° 100° 4 kt METAR LDOS 141830Z 10004KT CAVOK 20/15 Q1015
20:00
V
21 °C 10 km+ - Var Var 1 kt METAR LDOS 141800Z VRB01KT CAVOK 21/12 Q1015
19:30
V
22 °C 10 km+ - Var Var 2 kt METAR LDOS 141730Z VRB02KT CAVOK 22/14 Q1015
19:00
V
22 °C 10 km+ - 280° 280° 5 kt METAR LDOS 141700Z 28005KT CAVOK 22/10 Q1015
18:30
V
23 °C 10 km+ - 310° 310° 5 kt METAR LDOS 141630Z 31005KT 240V360 CAVOK 23/10 Q1015
18:00
V
23 °C 10 km+ - 270° 270° 3 kt METAR LDOS 141600Z 27003KT 200V330 CAVOK 23/09 Q1015
17:30
V
23 °C 10 km+ - 270° 270° 4 kt METAR LDOS 141530Z 27004KT 210V330 CAVOK 23/09 Q1016
17:00
V
24 °C 10 km+ - 270° 270° 5 kt METAR LDOS 141500Z 27005KT 220V320 CAVOK 24/08 Q1016
16:30
V
24 °C 10 km+ - 250° 250° 7 kt METAR LDOS 141430Z 25007KT 210V310 CAVOK 24/10 Q1016
16:00
V
24 °C 10 km+ - 230° 230° 7 kt METAR LDOS 141400Z 23007KT 200V270 CAVOK 24/11 Q1016
15:30
V
24 °C 10 km+ - 300° 300° 9 kt METAR LDOS 141330Z 30009KT 280V350 9999 FEW047 24/09 Q1016
15:00
V
24 °C 10 km+ - 270° 270° 7 kt METAR LDOS 141300Z 27007KT 220V340 9999 FEW047 24/09 Q1016
14:30
V
23 °C 10 km+ - 310° 310° 6 kt METAR LDOS 141230Z 31006KT 230V350 9999 FEW043 23/09 Q1016
14:00
V
23 °C 10 km+ - Var Var 7 kt METAR LDOS 141200Z VRB07KT 9999 FEW040 23/09 Q1016
13:30
V
22 °C 10 km+ - 250° 250° 9 kt METAR LDOS 141130Z 25009KT 9999 FEW037 22/10 Q1016
13:00
V
22 °C 10 km+ - 290° 290° 7 kt METAR LDOS 141100Z 29007KT 250V340 9999 FEW037 22/08 Q1016
12:30
V
22 °C 10 km+ - 290° 290° 7 kt METAR LDOS 141030Z 29007KT 250V330 9999 FEW033 22/09 Q1016
12:00
V
22 °C 10 km+ - 280° 280° 7 kt METAR LDOS 141000Z 28007KT 230V310 9999 FEW033 22/10 Q1017
11:30
V
21 °C 10 km+ - 320° 320° 7 kt METAR LDOS 140930Z 32007KT 230V010 CAVOK 21/10 Q1017
11:00
V
21 °C 10 km+ - 310° 310° 7 kt METAR LDOS 140900Z 31007KT 260V360 CAVOK 21/10 Q1016
10:30
V
20 °C 10 km+ - 290° 290° 7 kt METAR LDOS 140830Z 29007KT 250V340 CAVOK 20/10 Q1017
10:00
V
20 °C 10 km+ - 290° 290° 7 kt METAR LDOS 140800Z 29007KT 250V330 CAVOK 20/10 Q1017
09:30
V
19 °C 10 km+ - 300° 300° 7 kt METAR LDOS 140730Z 30007KT 260V330 CAVOK 19/11 Q1017
09:00
V
17 °C 10 km+ - 290° 290° 9 kt METAR LDOS 140700Z 29009KT CAVOK 17/12 Q1017
08:30
V
16 °C 10 km+ - 280° 280° 9 kt METAR LDOS 140630Z 28009KT CAVOK 16/13 Q1017
08:00
V
15 °C 10 km+ - 290° 290° 10 kt METAR LDOS 140600Z 29010KT CAVOK 15/12 Q1017
07:30
V
14 °C 10 km+ - 290° 290° 9 kt METAR LDOS 140530Z 29009KT CAVOK 14/12 Q1017
07:00
V
13 °C 10 km+ - 280° 280° 8 kt METAR LDOS 140500Z 28008KT CAVOK 13/12 Q1017
06:30
V
12 °C 10 km+ - 260° 260° 7 kt METAR LDOS 140430Z 26007KT CAVOK 12/11 Q1016
06:00
V
11 °C 10 km+ - 240° 240° 5 kt METAR LDOS 140400Z 24005KT CAVOK 11/11 Q1016
05:30
V
11 °C 10 km+ - 240° 240° 5 kt METAR LDOS 140330Z 24005KT CAVOK 11/10 Q1016
05:00
V
10 °C 10 km+ - 240° 240° 5 kt METAR LDOS 140300Z 24005KT CAVOK 10/10 Q1016
04:30
V
10 °C 10 km+ - 240° 240° 5 kt METAR LDOS 140230Z 24005KT CAVOK 10/10 Q1016
04:00
V
10 °C 10 km+ - 270° 270° 4 kt METAR LDOS 140200Z 27004KT CAVOK 10/10 Q1016
03:30
V
11 °C 10 km+ - 280° 280° 3 kt METAR LDOS 140130Z 28003KT CAVOK 11/10 Q1016
03:00
V
11 °C 10 km+ - 260° 260° 4 kt METAR LDOS 140100Z 26004KT CAVOK 11/11 Q1016
02:30
V
12 °C 10 km+ - 260° 260° 6 kt METAR LDOS 140030Z 26006KT CAVOK 12/11 Q1016
02:00
V
12 °C 10 km+ - 270° 270° 6 kt METAR LDOS 140000Z 27006KT CAVOK 12/11 Q1016
01:30
V
12 °C 10 km+ - 270° 270° 7 kt METAR LDOS 132330Z 27007KT CAVOK 12/12 Q1016
01:00
V
12 °C 10 km+ - 250° 250° 6 kt METAR LDOS 132300Z 25006KT CAVOK 12/12 Q1016
00:30
V
12 °C 10 km+ - 240° 240° 6 kt METAR LDOS 132230Z 24006KT CAVOK 12/12 Q1016
00:00
V
12 °C 10 km+ - 240° 240° 6 kt METAR LDOS 132200Z 24006KT CAVOK 12/12 Q1016

13 czerwca 2024

Czas Kod Pogoda Temp. Widoczność Sufit Wiatr METAR/SPECI
23:30
V
12 °C 10 km+ - 230° 230° 5 kt METAR LDOS 132130Z 23005KT CAVOK 12/12 Q1016
23:00
V
12 °C 10 km+ - 240° 240° 5 kt METAR LDOS 132100Z 24005KT CAVOK 12/12 Q1016
22:30
V
13 °C 10 km+ - 250° 250° 5 kt METAR LDOS 132030Z 25005KT CAVOK 13/12 Q1016
22:00
V
13 °C 10 km+ - 240° 240° 4 kt METAR LDOS 132000Z 24004KT CAVOK 13/12 Q1016
21:30
V
14 °C 10 km+ - 250° 250° 4 kt METAR LDOS 131930Z 25004KT CAVOK 14/13 Q1016
21:00
V
15 °C 10 km+ - 250° 250° 5 kt METAR LDOS 131900Z 25005KT CAVOK 15/13 Q1016
20:30
V
15 °C 10 km+ - 260° 260° 4 kt METAR LDOS 131830Z 26004KT 190V270 CAVOK 15/14 Q1015
20:00
V
16 °C 10 km+ - 280° 280° 5 kt METAR LDOS 131800Z 28005KT CAVOK 16/14 Q1015
19:30
V
17 °C 10 km+ - 270° 270° 6 kt METAR LDOS 131730Z 27006KT CAVOK 17/14 Q1015
19:00
V
16 °C 10 km+ - 270° 270° 6 kt METAR LDOS 131700Z 27006KT 9999 FEW045 16/14 Q1015
18:00
V
17 °C 10 km+ - 290° 290° 12 kt METAR LDOS 131600Z 29012KT 9999 FEW027 SCT040 17/13 Q1015
17:30
M
18 °C 10 km+ 3.000 ft 300° 300° 8 kt METAR LDOS 131530Z 30008KT 9999 BKN030 18/14 Q1015
17:00
V
18 °C 10 km+ - 310° 310° 9 kt METAR LDOS 131500Z 31009KT 9999 SCT030 18/15 Q1014
16:30
V
18 °C 10 km+ - 320° 320° 7 kt METAR LDOS 131430Z 32007KT 9999 FEW033 18/15 Q1014
16:00
V
17 °C 10 km+ - 320° 320° 6 kt METAR LDOS 131400Z 32006KT 9999 SCT045 17/15 Q1015
15:30
V
17 °C 10 km+ - 300° 300° 10 kt METAR LDOS 131330Z 30010KT 9999 -RA FEW020 SCT033 17/14 Q1015
15:00
M
16 °C 6 km 3.000 ft 300° 300° 10 kt METAR LDOS 131300Z 30010KT 6000 -RA SCT017 BKN030 16/15 Q1015 RERA
14:30
M
16 °C 6 km 3.000 ft 280° 280° 9 kt METAR LDOS 131230Z 28009KT 6000 -RA SCT020 BKN030 16/15 Q1015
14:00
M
17 °C 5 km 3.000 ft 320° 320° 8 kt METAR LDOS 131200Z 32008KT 5000 -RA SCT020 BKN030 17/15 Q1015
13:30
V
18 °C 10 km+ 3.500 ft 330° 330° 7 kt METAR LDOS 131130Z 33007KT 9999 SCT023 BKN035 18/14 Q1015
13:00
V
18 °C 10 km+ 4.000 ft 320° 320° 4 kt METAR LDOS 131100Z 32004KT 9999 SCT027 BKN040 18/13 Q1015
12:30
V
18 °C 10 km+ 4.000 ft Var Var 3 kt METAR LDOS 131030Z VRB03KT 9999 SCT027 BKN040 18/13 Q1015
12:00
V
19 °C 10 km+ 4.000 ft Var Var 2 kt METAR LDOS 131000Z VRB02KT 9999 SCT027 BKN040 19/13 Q1015
11:30
V
18 °C 10 km+ - 330° 330° 6 kt METAR LDOS 130930Z 33006KT 300V030 9999 FEW027 SCT040 18/13 Q1016
11:00
V
18 °C 10 km+ - 300° 300° 5 kt METAR LDOS 130900Z 30005KT 260V350 9999 FEW027 SCT040 18/13 Q1016
10:30
V
19 °C 10 km+ - 330° 330° 5 kt METAR LDOS 130830Z 33005KT 250V050 9999 FEW025 SCT037 19/13 Q1016
10:00
V
18 °C 10 km+ - 340° 340° 4 kt METAR LDOS 130800Z 34004KT 290V030 9999 FEW025 18/12 Q1016
09:30
V
17 °C 10 km+ - 290° 290° 3 kt METAR LDOS 130730Z 29003KT 240V040 9999 FEW025 SCT040 17/13 Q1016
09:00
V
17 °C 10 km+ - Var Var 3 kt METAR LDOS 130700Z VRB03KT 9999 FEW025 SCT040 17/13 Q1016
08:30
V
16 °C 10 km+ - 310° 310° 3 kt METAR LDOS 130630Z 31003KT 250V010 CAVOK 16/13 Q1016
08:00
M
15 °C 10 km+ 2.700 ft 270° 270° 3 kt METAR LDOS 130600Z 27003KT 9999 FEW013 BKN027 15/12 Q1016
Zgłoś zmianę